sensor_id;sensor_type;location;lat;lon;timestamp;pressure;altitude;pressure_sealevel;temperature;humidity
60646;BME280;46462;32.608;-117.032;2023-04-08T00:00:49;99482.96;;;28.29;24.92
60646;BME280;46462;32.608;-117.032;2023-04-08T00:03:20;99486.98;;;28.32;24.86
60646;BME280;46462;32.608;-117.032;2023-04-08T00:05:51;99487.23;;;28.31;24.84
60646;BME280;46462;32.608;-117.032;2023-04-08T00:08:21;99491.12;;;28.32;24.80
60646;BME280;46462;32.608;-117.032;2023-04-08T00:10:52;99491.36;;;28.34;24.73
60646;BME280;46462;32.608;-117.032;2023-04-08T00:13:23;99487.80;;;28.36;24.69
60646;BME280;46462;32.608;-117.032;2023-04-08T00:15:53;99489.98;;;28.35;24.70
60646;BME280;46462;32.608;-117.032;2023-04-08T00:18:24;99486.28;;;28.37;24.63
60646;BME280;46462;32.608;-117.032;2023-04-08T00:20:55;99482.42;;;28.39;24.61
60646;BME280;46462;32.608;-117.032;2023-04-08T00:23:25;99478.07;;;28.43;24.51
60646;BME280;46462;32.608;-117.032;2023-04-08T00:25:56;99477.30;;;28.45;24.47
60646;BME280;46462;32.608;-117.032;2023-04-08T00:28:26;99476.09;;;28.47;24.47
60646;BME280;46462;32.608;-117.032;2023-04-08T00:30:57;99474.97;;;28.51;24.39
60646;BME280;46462;32.608;-117.032;2023-04-08T00:33:28;99474.54;;;28.53;24.36
60646;BME280;46462;32.608;-117.032;2023-04-08T00:35:59;99473.15;;;28.52;24.36
60646;BME280;46462;32.608;-117.032;2023-04-08T00:38:29;99471.89;;;28.54;24.31
60646;BME280;46462;32.608;-117.032;2023-04-08T00:41:00;99476.18;;;28.57;24.25
60646;BME280;46462;32.608;-117.032;2023-04-08T00:43:31;99472.58;;;28.55;24.25
60646;BME280;46462;32.608;-117.032;2023-04-08T00:46:01;99474.67;;;28.58;24.22
60646;BME280;46462;32.608;-117.032;2023-04-08T00:48:32;99474.10;;;28.58;24.23
60646;BME280;46462;32.608;-117.032;2023-04-08T00:51:03;99478.30;;;28.59;24.22
60646;BME280;46462;32.608;-117.032;2023-04-08T00:53:33;99479.08;;;28.59;24.25
60646;BME280;46462;32.608;-117.032;2023-04-08T00:56:04;99482.16;;;28.58;24.29
60646;BME280;46462;32.608;-117.032;2023-04-08T00:58:35;99485.67;;;28.51;24.41
60646;BME280;46462;32.608;-117.032;2023-04-08T01:01:11;99486.04;;;28.51;24.44
60646;BME280;46462;32.608;-117.032;2023-04-08T01:03:43;99486.24;;;28.50;24.46
60646;BME280;46462;32.608;-117.032;2023-04-08T01:06:12;99486.70;;;28.47;24.58
60646;BME280;46462;32.608;-117.032;2023-04-08T01:08:39;99489.46;;;28.47;24.63
60646;BME280;46462;32.608;-117.032;2023-04-08T01:11:11;99488.38;;;28.44;24.72
60646;BME280;46462;32.608;-117.032;2023-04-08T01:13:40;99489.94;;;28.46;24.77
60646;BME280;46462;32.608;-117.032;2023-04-08T01:16:13;99493.65;;;28.44;24.80
60646;BME280;46462;32.608;-117.032;2023-04-08T01:18:41;99495.91;;;28.42;24.89
60646;BME280;46462;32.608;-117.032;2023-04-08T01:21:12;99499.74;;;28.38;24.99
60646;BME280;46462;32.608;-117.032;2023-04-08T01:23:52;99504.95;;;28.39;25.05
60646;BME280;46462;32.608;-117.032;2023-04-08T01:26:20;99505.63;;;28.35;25.16
60646;BME280;46462;32.608;-117.032;2023-04-08T01:28:43;99505.59;;;28.33;25.15
60646;BME280;46462;32.608;-117.032;2023-04-08T01:31:15;99510.02;;;28.34;25.17
60646;BME280;46462;32.608;-117.032;2023-04-08T01:33:45;99510.25;;;28.32;25.28
60646;BME280;46462;32.608;-117.032;2023-04-08T01:36:16;99509.08;;;28.32;25.26
60646;BME280;46462;32.608;-117.032;2023-04-08T01:38:47;99506.92;;;28.34;25.29
60646;BME280;46462;32.608;-117.032;2023-04-08T01:41:18;99502.73;;;28.31;25.36
60646;BME280;46462;32.608;-117.032;2023-04-08T01:43:48;99499.16;;;28.37;25.18
60646;BME280;46462;32.608;-117.032;2023-04-08T01:46:18;99496.39;;;28.43;25.09
60646;BME280;46462;32.608;-117.032;2023-04-08T01:48:49;99500.66;;;28.44;25.07
60646;BME280;46462;32.608;-117.032;2023-04-08T01:51:20;99502.18;;;28.45;25.08
60646;BME280;46462;32.608;-117.032;2023-04-08T01:53:50;99499.95;;;28.46;25.05
60646;BME280;46462;32.608;-117.032;2023-04-08T01:56:22;99496.12;;;28.47;25.04
60646;BME280;46462;32.608;-117.032;2023-04-08T01:58:53;99496.55;;;28.45;25.09
60646;BME280;46462;32.608;-117.032;2023-04-08T02:01:24;99496.97;;;28.45;25.07
60646;BME280;46462;32.608;-117.032;2023-04-08T02:03:54;99503.37;;;28.43;25.13
60646;BME280;46462;32.608;-117.032;2023-04-08T02:06:25;99505.16;;;28.42;25.13
60646;BME280;46462;32.608;-117.032;2023-04-08T02:08:54;99504.78;;;28.35;25.19
60646;BME280;46462;32.608;-117.032;2023-04-08T02:11:25;99503.82;;;28.32;25.26
60646;BME280;46462;32.608;-117.032;2023-04-08T02:13:56;99503.56;;;28.31;25.26
60646;BME280;46462;32.608;-117.032;2023-04-08T02:16:31;99507.80;;;28.29;25.32
60646;BME280;46462;32.608;-117.032;2023-04-08T02:18:59;99512.48;;;28.24;25.41
60646;BME280;46462;32.608;-117.032;2023-04-08T02:21:33;99514.11;;;28.26;25.45
60646;BME280;46462;32.608;-117.032;2023-04-08T02:23:59;99514.22;;;28.28;25.41
60646;BME280;46462;32.608;-117.032;2023-04-08T02:26:29;99512.81;;;28.29;25.32
60646;BME280;46462;32.608;-117.032;2023-04-08T02:29:00;99511.77;;;28.22;25.53
60646;BME280;46462;32.608;-117.032;2023-04-08T02:31:31;99511.29;;;28.20;25.62
60646;BME280;46462;32.608;-117.032;2023-04-08T02:34:01;99511.08;;;28.17;25.64
60646;BME280;46462;32.608;-117.032;2023-04-08T02:36:32;99509.56;;;28.15;25.66
60646;BME280;46462;32.608;-117.032;2023-04-08T02:39:03;99508.05;;;28.12;25.76
60646;BME280;46462;32.608;-117.032;2023-04-08T02:41:33;99508.42;;;28.14;25.70
60646;BME280;46462;32.608;-117.032;2023-04-08T02:44:04;99511.00;;;28.12;25.76
60646;BME280;46462;32.608;-117.032;2023-04-08T02:46:35;99516.50;;;28.12;25.76
60646;BME280;46462;32.608;-117.032;2023-04-08T02:49:05;99520.69;;;28.10;25.80
60646;BME280;46462;32.608;-117.032;2023-04-08T02:51:36;99524.33;;;28.12;25.79
60646;BME280;46462;32.608;-117.032;2023-04-08T02:54:07;99524.31;;;28.12;25.81
60646;BME280;46462;32.608;-117.032;2023-04-08T02:56:37;99523.03;;;28.09;25.89
60646;BME280;46462;32.608;-117.032;2023-04-08T02:59:08;99523.60;;;28.06;25.94
60646;BME280;46462;32.608;-117.032;2023-04-08T03:01:39;99519.88;;;28.06;25.90
60646;BME280;46462;32.608;-117.032;2023-04-08T03:04:10;99521.43;;;28.04;25.95
60646;BME280;46462;32.608;-117.032;2023-04-08T03:06:40;99519.71;;;28.01;26.00
60646;BME280;46462;32.608;-117.032;2023-04-08T03:09:11;99519.04;;;27.96;26.13
60646;BME280;46462;32.608;-117.032;2023-04-08T03:11:42;99520.45;;;27.87;26.25
60646;BME280;46462;32.608;-117.032;2023-04-08T03:14:12;99518.43;;;27.81;26.31
60646;BME280;46462;32.608;-117.032;2023-04-08T03:16:43;99521.01;;;27.80;26.35
60646;BME280;46462;32.608;-117.032;2023-04-08T03:19:14;99522.40;;;27.78;26.34
60646;BME280;46462;32.608;-117.032;2023-04-08T03:21:45;99526.51;;;27.78;26.38
60646;BME280;46462;32.608;-117.032;2023-04-08T03:24:15;99529.34;;;27.77;26.33
60646;BME280;46462;32.608;-117.032;2023-04-08T03:26:46;99535.03;;;27.78;26.39
60646;BME280;46462;32.608;-117.032;2023-04-08T03:29:17;99540.22;;;27.77;26.38
60646;BME280;46462;32.608;-117.032;2023-04-08T03:31:47;99542.67;;;27.70;26.56
60646;BME280;46462;32.608;-117.032;2023-04-08T03:34:19;99546.74;;;27.69;26.55
60646;BME280;46462;32.608;-117.032;2023-04-08T03:36:49;99552.66;;;27.72;26.50
60646;BME280;46462;32.608;-117.032;2023-04-08T03:39:19;99557.13;;;27.72;26.53
60646;BME280;46462;32.608;-117.032;2023-04-08T03:41:50;99559.70;;;27.73;26.52
60646;BME280;46462;32.608;-117.032;2023-04-08T03:44:21;99563.40;;;27.72;26.55
60646;BME280;46462;32.608;-117.032;2023-04-08T03:46:52;99562.42;;;27.74;26.57
60646;BME280;46462;32.608;-117.032;2023-04-08T03:49:22;99566.25;;;27.69;26.62
60646;BME280;46462;32.608;-117.032;2023-04-08T03:51:53;99569.10;;;27.71;26.60
60646;BME280;46462;32.608;-117.032;2023-04-08T03:54:24;99569.61;;;27.72;26.57
60646;BME280;46462;32.608;-117.032;2023-04-08T03:56:54;99571.22;;;27.73;26.59
60646;BME280;46462;32.608;-117.032;2023-04-08T03:59:25;99574.81;;;27.72;26.57
60646;BME280;46462;32.608;-117.032;2023-04-08T04:01:56;99577.99;;;27.72;26.59
60646;BME280;46462;32.608;-117.032;2023-04-08T04:04:26;99587.49;;;27.69;26.60
60646;BME280;46462;32.608;-117.032;2023-04-08T04:06:58;99592.71;;;27.69;26.64
60646;BME280;46462;32.608;-117.032;2023-04-08T04:09:28;99591.75;;;27.68;26.63
60646;BME280;46462;32.608;-117.032;2023-04-08T04:11:58;99595.35;;;27.66;26.67
60646;BME280;46462;32.608;-117.032;2023-04-08T04:14:29;99597.55;;;27.61;26.74
60646;BME280;46462;32.608;-117.032;2023-04-08T04:17:00;99608.75;;;27.63;26.72
60646;BME280;46462;32.608;-117.032;2023-04-08T04:19:31;99611.76;;;27.61;26.73
60646;BME280;46462;32.608;-117.032;2023-04-08T04:22:01;99613.76;;;27.62;26.71
60646;BME280;46462;32.608;-117.032;2023-04-08T04:24:32;99617.12;;;27.60;26.77
60646;BME280;46462;32.608;-117.032;2023-04-08T04:27:03;99616.78;;;27.59;26.73
60646;BME280;46462;32.608;-117.032;2023-04-08T04:29:34;99617.72;;;27.54;26.79
60646;BME280;46462;32.608;-117.032;2023-04-08T04:32:04;99614.90;;;27.56;26.75
60646;BME280;46462;32.608;-117.032;2023-04-08T04:34:35;99610.28;;;27.51;26.87
60646;BME280;46462;32.608;-117.032;2023-04-08T04:37:05;99615.72;;;27.52;26.83
60646;BME280;46462;32.608;-117.032;2023-04-08T04:39:36;99620.00;;;27.48;26.88
60646;BME280;46462;32.608;-117.032;2023-04-08T04:42:07;99622.64;;;27.46;26.87
60646;BME280;46462;32.608;-117.032;2023-04-08T04:44:37;99619.64;;;27.43;26.94
60646;BME280;46462;32.608;-117.032;2023-04-08T04:47:08;99619.97;;;27.43;26.95
60646;BME280;46462;32.608;-117.032;2023-04-08T04:49:39;99621.66;;;27.40;27.00
60646;BME280;46462;32.608;-117.032;2023-04-08T04:52:09;99625.90;;;27.42;26.96
60646;BME280;46462;32.608;-117.032;2023-04-08T04:54:40;99626.85;;;27.39;26.99
60646;BME280;46462;32.608;-117.032;2023-04-08T04:57:11;99634.28;;;27.40;26.99
60646;BME280;46462;32.608;-117.032;2023-04-08T04:59:41;99641.77;;;27.34;27.03
60646;BME280;46462;32.608;-117.032;2023-04-08T05:02:12;99644.70;;;27.32;27.09
60646;BME280;46462;32.608;-117.032;2023-04-08T05:04:43;99643.16;;;27.26;27.19
60646;BME280;46462;32.608;-117.032;2023-04-08T05:07:14;99642.51;;;27.29;27.09
60646;BME280;46462;32.608;-117.032;2023-04-08T05:09:44;99645.12;;;27.23;27.26
60646;BME280;46462;32.608;-117.032;2023-04-08T05:12:15;99645.88;;;27.19;27.33
60646;BME280;46462;32.608;-117.032;2023-04-08T05:14:46;99645.69;;;27.19;27.31
60646;BME280;46462;32.608;-117.032;2023-04-08T05:17:17;99647.06;;;27.15;27.40
60646;BME280;46462;32.608;-117.032;2023-04-08T05:19:47;99650.63;;;27.14;27.40
60646;BME280;46462;32.608;-117.032;2023-04-08T05:22:18;99653.28;;;27.13;27.40
60646;BME280;46462;32.608;-117.032;2023-04-08T05:24:49;99648.90;;;27.11;27.42
60646;BME280;46462;32.608;-117.032;2023-04-08T05:27:19;99653.46;;;27.11;27.43
60646;BME280;46462;32.608;-117.032;2023-04-08T05:29:50;99657.37;;;27.09;27.44
60646;BME280;46462;32.608;-117.032;2023-04-08T05:32:21;99658.92;;;27.06;27.56
60646;BME280;46462;32.608;-117.032;2023-04-08T05:34:52;99658.41;;;27.02;27.62
60646;BME280;46462;32.608;-117.032;2023-04-08T05:37:22;99663.61;;;27.05;27.53
60646;BME280;46462;32.608;-117.032;2023-04-08T05:39:53;99662.30;;;27.02;27.65
60646;BME280;46462;32.608;-117.032;2023-04-08T05:42:24;99662.98;;;27.01;27.61
60646;BME280;46462;32.608;-117.032;2023-04-08T05:44:54;99664.35;;;26.98;27.64
60646;BME280;46462;32.608;-117.032;2023-04-08T05:47:25;99661.55;;;26.98;27.63
60646;BME280;46462;32.608;-117.032;2023-04-08T05:49:56;99659.88;;;26.94;27.74
60646;BME280;46462;32.608;-117.032;2023-04-08T05:52:27;99657.33;;;26.95;27.71
60646;BME280;46462;32.608;-117.032;2023-04-08T05:54:57;99655.72;;;26.94;27.72
60646;BME280;46462;32.608;-117.032;2023-04-08T05:57:28;99658.53;;;26.97;27.62
60646;BME280;46462;32.608;-117.032;2023-04-08T05:59:59;99667.50;;;26.96;27.67
60646;BME280;46462;32.608;-117.032;2023-04-08T06:02:29;99673.84;;;26.94;27.64
60646;BME280;46462;32.608;-117.032;2023-04-08T06:05:00;99672.30;;;26.91;27.67
60646;BME280;46462;32.608;-117.032;2023-04-08T06:07:32;99672.57;;;26.92;27.66
60646;BME280;46462;32.608;-117.032;2023-04-08T06:10:02;99669.48;;;26.85;27.72
60646;BME280;46462;32.608;-117.032;2023-04-08T06:12:35;99670.93;;;26.85;27.73
60646;BME280;46462;32.608;-117.032;2023-04-08T06:15:08;99673.57;;;26.84;27.75
60646;BME280;46462;32.608;-117.032;2023-04-08T06:17:37;99675.02;;;26.88;27.71
60646;BME280;46462;32.608;-117.032;2023-04-08T06:20:08;99677.24;;;26.84;27.73
60646;BME280;46462;32.608;-117.032;2023-04-08T06:22:38;99679.84;;;26.80;27.76
60646;BME280;46462;32.608;-117.032;2023-04-08T06:25:09;99681.56;;;26.79;27.77
60646;BME280;46462;32.608;-117.032;2023-04-08T06:27:39;99675.41;;;26.79;27.76
60646;BME280;46462;32.608;-117.032;2023-04-08T06:30:10;99673.25;;;26.76;27.81
60646;BME280;46462;32.608;-117.032;2023-04-08T06:32:41;99668.95;;;26.77;27.76
60646;BME280;46462;32.608;-117.032;2023-04-08T06:35:11;99671.08;;;26.74;27.80
60646;BME280;46462;32.608;-117.032;2023-04-08T06:37:42;99672.97;;;26.72;27.82
60646;BME280;46462;32.608;-117.032;2023-04-08T06:40:13;99669.99;;;26.72;27.81
60646;BME280;46462;32.608;-117.032;2023-04-08T06:42:44;99665.45;;;26.68;27.81
60646;BME280;46462;32.608;-117.032;2023-04-08T06:45:14;99661.61;;;26.69;27.77
60646;BME280;46462;32.608;-117.032;2023-04-08T06:47:45;99662.80;;;26.64;27.77
60646;BME280;46462;32.608;-117.032;2023-04-08T06:50:16;99666.21;;;26.65;27.79
60646;BME280;46462;32.608;-117.032;2023-04-08T06:52:47;99664.82;;;26.65;27.76
60646;BME280;46462;32.608;-117.032;2023-04-08T06:55:17;99663.76;;;26.59;27.82
60646;BME280;46462;32.608;-117.032;2023-04-08T06:57:48;99662.38;;;26.60;27.78
60646;BME280;46462;32.608;-117.032;2023-04-08T07:00:19;99663.41;;;26.56;27.84
60646;BME280;46462;32.608;-117.032;2023-04-08T07:02:49;99662.97;;;26.56;27.82
60646;BME280;46462;32.608;-117.032;2023-04-08T07:05:20;99659.70;;;26.51;27.89
60646;BME280;46462;32.608;-117.032;2023-04-08T07:07:51;99654.60;;;26.49;27.90
60646;BME280;46462;32.608;-117.032;2023-04-08T07:10:22;99654.61;;;26.47;27.91
60646;BME280;46462;32.608;-117.032;2023-04-08T07:12:53;99654.90;;;26.43;27.99
60646;BME280;46462;32.608;-117.032;2023-04-08T07:15:23;99659.34;;;26.38;28.06
60646;BME280;46462;32.608;-117.032;2023-04-08T07:17:54;99663.23;;;26.39;27.92
60646;BME280;46462;32.608;-117.032;2023-04-08T07:20:25;99669.91;;;26.34;28.01
60646;BME280;46462;32.608;-117.032;2023-04-08T07:22:55;99674.24;;;26.33;28.03
60646;BME280;46462;32.608;-117.032;2023-04-08T07:25:26;99673.03;;;26.33;28.03
60646;BME280;46462;32.608;-117.032;2023-04-08T07:27:57;99679.09;;;26.34;27.95
60646;BME280;46462;32.608;-117.032;2023-04-08T07:30:28;99677.92;;;26.28;28.05
60646;BME280;46462;32.608;-117.032;2023-04-08T07:32:58;99673.15;;;26.28;28.00
60646;BME280;46462;32.608;-117.032;2023-04-08T07:35:29;99672.53;;;26.24;28.04
60646;BME280;46462;32.608;-117.032;2023-04-08T07:38:00;99669.83;;;26.23;28.00
60646;BME280;46462;32.608;-117.032;2023-04-08T07:40:30;99669.12;;;26.22;28.02
60646;BME280;46462;32.608;-117.032;2023-04-08T07:43:01;99669.17;;;26.21;27.98
60646;BME280;46462;32.608;-117.032;2023-04-08T07:45:32;99665.42;;;26.18;28.00
60646;BME280;46462;32.608;-117.032;2023-04-08T07:48:03;99666.53;;;26.16;28.03
60646;BME280;46462;32.608;-117.032;2023-04-08T07:50:35;99669.72;;;26.16;27.96
60646;BME280;46462;32.608;-117.032;2023-04-08T07:53:05;99671.32;;;26.14;27.99
60646;BME280;46462;32.608;-117.032;2023-04-08T07:55:35;99670.44;;;26.17;27.89
60646;BME280;46462;32.608;-117.032;2023-04-08T07:58:06;99664.28;;;26.19;27.80
60646;BME280;46462;32.608;-117.032;2023-04-08T08:00:36;99668.03;;;26.18;27.79
60646;BME280;46462;32.608;-117.032;2023-04-08T08:03:07;99666.12;;;26.16;27.77
60646;BME280;46462;32.608;-117.032;2023-04-08T08:05:38;99666.72;;;26.14;27.81
60646;BME280;46462;32.608;-117.032;2023-04-08T08:08:09;99663.99;;;26.16;27.72
60646;BME280;46462;32.608;-117.032;2023-04-08T08:10:40;99660.36;;;26.11;27.79
60646;BME280;46462;32.608;-117.032;2023-04-08T08:13:10;99652.88;;;26.13;27.70
60646;BME280;46462;32.608;-117.032;2023-04-08T08:15:41;99651.61;;;26.13;27.67
60646;BME280;46462;32.608;-117.032;2023-04-08T08:18:12;99646.23;;;26.08;27.71
60646;BME280;46462;32.608;-117.032;2023-04-08T08:20:42;99642.85;;;26.04;27.76
60646;BME280;46462;32.608;-117.032;2023-04-08T08:23:13;99640.56;;;26.05;27.70
60646;BME280;46462;32.608;-117.032;2023-04-08T08:25:44;99641.48;;;26.04;27.67
60646;BME280;46462;32.608;-117.032;2023-04-08T08:28:15;99640.15;;;26.05;27.63
60646;BME280;46462;32.608;-117.032;2023-04-08T08:30:45;99638.30;;;25.98;27.75
60646;BME280;46462;32.608;-117.032;2023-04-08T08:33:16;99635.09;;;25.98;27.77
60646;BME280;46462;32.608;-117.032;2023-04-08T08:35:47;99637.06;;;25.96;27.73
60646;BME280;46462;32.608;-117.032;2023-04-08T08:38:18;99636.59;;;25.95;27.73
60646;BME280;46462;32.608;-117.032;2023-04-08T08:40:53;99630.83;;;25.96;27.69
60646;BME280;46462;32.608;-117.032;2023-04-08T08:43:19;99628.67;;;25.96;27.63
60646;BME280;46462;32.608;-117.032;2023-04-08T08:45:50;99623.73;;;25.94;27.66
60646;BME280;46462;32.608;-117.032;2023-04-08T08:48:21;99625.30;;;25.89;27.71
60646;BME280;46462;32.608;-117.032;2023-04-08T08:50:51;99624.56;;;25.93;27.64
60646;BME280;46462;32.608;-117.032;2023-04-08T08:53:28;99620.81;;;25.91;27.63
60646;BME280;46462;32.608;-117.032;2023-04-08T08:55:53;99620.97;;;25.89;27.64
60646;BME280;46462;32.608;-117.032;2023-04-08T08:58:26;99623.53;;;25.87;27.64
60646;BME280;46462;32.608;-117.032;2023-04-08T09:00:55;99623.52;;;25.83;27.69
60646;BME280;46462;32.608;-117.032;2023-04-08T09:03:26;99622.29;;;25.82;27.67
60646;BME280;46462;32.608;-117.032;2023-04-08T09:05:58;99621.35;;;25.84;27.59
60646;BME280;46462;32.608;-117.032;2023-04-08T09:08:29;99618.83;;;25.82;27.56
60646;BME280;46462;32.608;-117.032;2023-04-08T09:13:34;99616.79;;;25.73;27.68
60646;BME280;46462;32.608;-117.032;2023-04-08T09:16:04;99616.92;;;25.72;27.66
60646;BME280;46462;32.608;-117.032;2023-04-08T09:18:30;99618.35;;;25.68;27.73
60646;BME280;46462;32.608;-117.032;2023-04-08T09:21:01;99621.91;;;25.64;27.78
60646;BME280;46462;32.608;-117.032;2023-04-08T09:23:40;99615.70;;;25.63;27.72
60646;BME280;46462;32.608;-117.032;2023-04-08T09:26:07;99611.57;;;25.68;27.61
60646;BME280;46462;32.608;-117.032;2023-04-08T09:28:33;99606.36;;;25.65;27.65
60646;BME280;46462;32.608;-117.032;2023-04-08T09:33:34;99605.05;;;25.55;27.77
60646;BME280;46462;32.608;-117.032;2023-04-08T09:36:05;99602.54;;;25.53;27.74
60646;BME280;46462;32.608;-117.032;2023-04-08T09:38:36;99602.32;;;25.53;27.75
60646;BME280;46462;32.608;-117.032;2023-04-08T09:41:07;99598.66;;;25.51;27.74
60646;BME280;46462;32.608;-117.032;2023-04-08T09:43:42;99595.88;;;25.43;27.83
60646;BME280;46462;32.608;-117.032;2023-04-08T09:46:11;99593.27;;;25.34;27.94
60646;BME280;46462;32.608;-117.032;2023-04-08T09:48:46;99589.59;;;25.32;27.96
60646;BME280;46462;32.608;-117.032;2023-04-08T09:51:14;99587.04;;;25.34;27.90
60646;BME280;46462;32.608;-117.032;2023-04-08T09:53:45;99582.63;;;25.31;27.89
60646;BME280;46462;32.608;-117.032;2023-04-08T09:56:12;99576.26;;;25.34;27.84
60646;BME280;46462;32.608;-117.032;2023-04-08T09:58:48;99572.28;;;25.37;27.78
60646;BME280;46462;32.608;-117.032;2023-04-08T10:01:14;99572.52;;;25.38;27.74
60646;BME280;46462;32.608;-117.032;2023-04-08T10:03:48;99568.38;;;25.38;27.70
60646;BME280;46462;32.608;-117.032;2023-04-08T10:06:15;99565.37;;;25.43;27.60
60646;BME280;46462;32.608;-117.032;2023-04-08T10:08:45;99566.76;;;25.43;27.58
60646;BME280;46462;32.608;-117.032;2023-04-08T10:11:16;99562.32;;;25.44;27.55
60646;BME280;46462;32.608;-117.032;2023-04-08T10:13:47;99560.95;;;25.42;27.56
60646;BME280;46462;32.608;-117.032;2023-04-08T10:16:20;99558.18;;;25.45;27.46
60646;BME280;46462;32.608;-117.032;2023-04-08T10:18:49;99555.59;;;25.38;27.57
60646;BME280;46462;32.608;-117.032;2023-04-08T10:23:54;99551.41;;;25.37;27.50
60646;BME280;46462;32.608;-117.032;2023-04-08T10:26:29;99554.02;;;25.39;27.44
60646;BME280;46462;32.608;-117.032;2023-04-08T10:28:51;99550.86;;;25.35;27.47
60646;BME280;46462;32.608;-117.032;2023-04-08T10:31:22;99548.68;;;25.35;27.43
60646;BME280;46462;32.608;-117.032;2023-04-08T10:33:53;99545.65;;;25.29;27.48
60646;BME280;46462;32.608;-117.032;2023-04-08T10:36:24;99545.59;;;25.29;27.46
60646;BME280;46462;32.608;-117.032;2023-04-08T10:38:54;99546.17;;;25.20;27.62
60646;BME280;46462;32.608;-117.032;2023-04-08T10:41:25;99545.57;;;25.19;27.59
60646;BME280;46462;32.608;-117.032;2023-04-08T10:43:56;99548.24;;;25.14;27.67
60646;BME280;46462;32.608;-117.032;2023-04-08T10:46:27;99546.35;;;25.15;27.59
60646;BME280;46462;32.608;-117.032;2023-04-08T10:49:00;99544.37;;;25.19;27.51
60646;BME280;46462;32.608;-117.032;2023-04-08T10:51:30;99542.80;;;25.23;27.44
60646;BME280;46462;32.608;-117.032;2023-04-08T10:54:07;99542.22;;;25.19;27.47
60646;BME280;46462;32.608;-117.032;2023-04-08T10:56:30;99542.90;;;25.16;27.45
60646;BME280;46462;32.608;-117.032;2023-04-08T10:59:00;99549.84;;;25.15;27.44
60646;BME280;46462;32.608;-117.032;2023-04-08T11:01:37;99549.76;;;25.15;27.41
60646;BME280;46462;32.608;-117.032;2023-04-08T11:04:10;99546.07;;;25.04;27.53
60646;BME280;46462;32.608;-117.032;2023-04-08T11:06:36;99546.91;;;25.07;27.51
60646;BME280;46462;32.608;-117.032;2023-04-08T11:09:04;99546.77;;;25.05;27.51
60646;BME280;46462;32.608;-117.032;2023-04-08T11:11:34;99547.03;;;25.06;27.49
60646;BME280;46462;32.608;-117.032;2023-04-08T11:14:05;99545.63;;;25.01;27.50
60646;BME280;46462;32.608;-117.032;2023-04-08T11:16:37;99544.32;;;25.02;27.47
60646;BME280;46462;32.608;-117.032;2023-04-08T11:19:07;99546.76;;;24.98;27.54
60646;BME280;46462;32.608;-117.032;2023-04-08T11:21:37;99548.13;;;24.98;27.46
60646;BME280;46462;32.608;-117.032;2023-04-08T11:24:10;99550.82;;;24.96;27.49
60646;BME280;46462;32.608;-117.032;2023-04-08T11:26:40;99551.26;;;24.93;27.49
60646;BME280;46462;32.608;-117.032;2023-04-08T11:29:11;99551.25;;;24.84;27.62
60646;BME280;46462;32.608;-117.032;2023-04-08T11:31:42;99552.05;;;24.79;27.67
60646;BME280;46462;32.608;-117.032;2023-04-08T11:34:11;99550.75;;;24.76;27.67
60646;BME280;46462;32.608;-117.032;2023-04-08T11:36:42;99553.99;;;24.78;27.69
60646;BME280;46462;32.608;-117.032;2023-04-08T11:39:13;99558.30;;;24.75;27.69
60646;BME280;46462;32.608;-117.032;2023-04-08T11:41:44;99556.94;;;24.77;27.61
60646;BME280;46462;32.608;-117.032;2023-04-08T11:44:14;99556.56;;;24.78;27.59
60646;BME280;46462;32.608;-117.032;2023-04-08T11:46:53;99557.50;;;24.73;27.64
60646;BME280;46462;32.608;-117.032;2023-04-08T11:49:16;99556.57;;;24.68;27.72
60646;BME280;46462;32.608;-117.032;2023-04-08T11:51:55;99555.03;;;24.70;27.69
60646;BME280;46462;32.608;-117.032;2023-04-08T11:54:25;99555.77;;;24.71;27.65
60646;BME280;46462;32.608;-117.032;2023-04-08T11:56:49;99549.24;;;24.75;27.58
60646;BME280;46462;32.608;-117.032;2023-04-08T11:59:19;99544.98;;;24.68;27.61
60646;BME280;46462;32.608;-117.032;2023-04-08T12:01:51;99542.73;;;24.71;27.55
60646;BME280;46462;32.608;-117.032;2023-04-08T12:04:21;99538.96;;;24.69;27.56
60646;BME280;46462;32.608;-117.032;2023-04-08T12:06:52;99540.59;;;24.70;27.46
60646;BME280;46462;32.608;-117.032;2023-04-08T12:09:22;99543.93;;;24.70;27.45
60646;BME280;46462;32.608;-117.032;2023-04-08T12:11:53;99543.14;;;24.67;27.48
60646;BME280;46462;32.608;-117.032;2023-04-08T12:14:24;99544.00;;;24.59;27.58
60646;BME280;46462;32.608;-117.032;2023-04-08T12:16:55;99546.00;;;24.65;27.45
60646;BME280;46462;32.608;-117.032;2023-04-08T12:19:26;99550.00;;;24.61;27.49
60646;BME280;46462;32.608;-117.032;2023-04-08T12:21:56;99550.50;;;24.63;27.42
60646;BME280;46462;32.608;-117.032;2023-04-08T12:24:27;99555.65;;;24.60;27.43
60646;BME280;46462;32.608;-117.032;2023-04-08T12:26:58;99559.54;;;24.56;27.49
60646;BME280;46462;32.608;-117.032;2023-04-08T12:29:29;99559.04;;;24.54;27.51
60646;BME280;46462;32.608;-117.032;2023-04-08T12:31:59;99561.83;;;24.50;27.58
60646;BME280;46462;32.608;-117.032;2023-04-08T12:34:30;99562.61;;;24.52;27.45
60646;BME280;46462;32.608;-117.032;2023-04-08T12:37:01;99569.32;;;24.51;27.47
60646;BME280;46462;32.608;-117.032;2023-04-08T12:39:32;99566.55;;;24.52;27.44
60646;BME280;46462;32.608;-117.032;2023-04-08T12:42:03;99567.42;;;24.52;27.40
60646;BME280;46462;32.608;-117.032;2023-04-08T12:44:34;99566.17;;;24.48;27.43
60646;BME280;46462;32.608;-117.032;2023-04-08T12:47:04;99563.91;;;24.48;27.39
60646;BME280;46462;32.608;-117.032;2023-04-08T12:49:35;99564.01;;;24.36;27.59
60646;BME280;46462;32.608;-117.032;2023-04-08T12:52:06;99565.56;;;24.42;27.48
60646;BME280;46462;32.608;-117.032;2023-04-08T12:54:37;99570.06;;;24.38;27.53